TimeEST,TemperatureF,Dew PointF,Humidity,Sea Level PressureIn,VisibilityMPH,Wind Direction,Wind SpeedMPH,Gust SpeedMPH,PrecipitationIn,Events,Conditions,WindDirDegrees,DateUTC
12:53 AM,60.1,57.9,93,29.98,10.0,South,3.5,-,N/A,,Partly Cloudy,170,2012-12-10 05:53:00
1:53 AM,62.1,59.0,90,29.96,10.0,SSE,4.6,-,N/A,,Scattered Clouds,160,2012-12-10 06:53:00
2:53 AM,62.1,60.1,93,29.94,8.0,SSE,3.5,-,N/A,,Scattered Clouds,160,2012-12-10 07:53:00
3:02 AM,62.6,60.8,94,29.94,8.0,SSE,4.6,-,N/A,,Mostly Cloudy,160,2012-12-10 08:02:00
3:53 AM,63.0,61.0,93,29.92,9.0,South,5.8,-,N/A,,Overcast,180,2012-12-10 08:53:00
4:53 AM,63.0,61.0,93,29.89,9.0,South,3.5,-,N/A,,Overcast,170,2012-12-10 09:53:00
5:08 AM,62.6,62.6,100,29.89,10.0,SSW,3.5,-,N/A,,Overcast,210,2012-12-10 10:08:00
5:53 AM,63.0,62.1,97,29.88,10.0,South,3.5,-,N/A,,Overcast,190,2012-12-10 10:53:00
6:53 AM,64.0,62.1,93,29.87,7.0,SSE,4.6,-,N/A,,Overcast,160,2012-12-10 11:53:00
7:38 AM,64.4,62.6,94,29.86,7.0,South,3.5,-,0.00,,Overcast,180,2012-12-10 12:38:00
7:53 AM,64.0,62.1,93,29.86,7.0,South,4.6,-,0.00,,Overcast,190,2012-12-10 12:53:00
8:53 AM,64.9,63.0,93,29.86,5.0,SSW,5.8,-,0.00,Rain,Light Rain,200,2012-12-10 13:53:00
9:53 AM,66.0,64.0,93,29.84,6.0,SSW,9.2,-,N/A,,Overcast,200,2012-12-10 14:53:00
10:53 AM,66.9,63.0,87,29.83,8.0,SSW,8.1,-,N/A,,Overcast,210,2012-12-10 15:53:00
11:53 AM,68.0,63.0,84,29.80,9.0,SW,9.2,-,N/A,,Overcast,220,2012-12-10 16:53:00
12:19 PM,69.8,62.6,78,29.78,10.0,SW,13.8,19.6,N/A,,Mostly Cloudy,230,2012-12-10 17:19:00
12:53 PM,71.1,62.1,73,29.76,10.0,SSW,15.0,-,N/A,,Mostly Cloudy,210,2012-12-10 17:53:00
1:18 PM,71.6,60.8,69,29.75,10.0,SSW,11.5,21.9,N/A,,Mostly Cloudy,210,2012-12-10 18:18:00
1:53 PM,73.9,57.0,55,29.74,10.0,SW,18.4,31.1,N/A,,Scattered Clouds,220,2012-12-10 18:53:00
2:53 PM,71.1,55.0,57,29.73,10.0,SSW,18.4,25.3,N/A,,Clear,200,2012-12-10 19:53:00
3:53 PM,70.0,55.9,61,29.74,10.0,SSW,12.7,19.6,N/A,,Clear,210,2012-12-10 20:53:00
4:53 PM,69.1,57.0,65,29.74,10.0,SSW,9.2,-,N/A,,Mostly Cloudy,200,2012-12-10 21:53:00
5:53 PM,66.9,55.9,68,29.74,10.0,South,10.4,-,N/A,,Clear,190,2012-12-10 22:53:00
6:53 PM,64.9,55.9,73,29.74,10.0,South,6.9,-,N/A,,Clear,190,2012-12-10 23:53:00
7:53 PM,64.9,55.0,70,29.75,10.0,South,9.2,-,N/A,,Scattered Clouds,190,2012-12-11 00:53:00
8:53 PM,64.9,55.9,73,29.72,10.0,South,12.7,21.9,N/A,,Clear,190,2012-12-11 01:53:00
9:53 PM,66.0,57.0,73,29.70,10.0,South,15.0,-,N/A,,Clear,190,2012-12-11 02:53:00
10:53 PM,66.0,57.0,73,29.73,10.0,South,13.8,19.6,N/A,,Clear,190,2012-12-11 03:53:00
11:53 PM,66.0,57.0,73,29.74,10.0,SSW,9.2,-,N/A,,Clear,200,2012-12-11 04:53:00